createdAt,value
2023-05-06T00:00:21.023Z,8.55
2023-05-06T00:02:48.338Z,8.27
2023-05-06T00:05:18.692Z,8.45
2023-05-06T00:07:46.483Z,8.40
2023-05-06T00:10:13.850Z,8.68
2023-05-06T00:12:41.054Z,8.32
2023-05-06T00:15:08.903Z,8.60
2023-05-06T00:17:36.218Z,8.10
2023-05-06T00:20:04.070Z,8.48
2023-05-06T00:22:31.297Z,9.18
2023-05-06T00:24:58.471Z,7.55
2023-05-06T00:27:25.673Z,9.00
2023-05-06T00:29:52.790Z,7.78
2023-05-06T00:32:19.860Z,8.20
2023-05-06T00:34:47.103Z,9.25
2023-05-06T00:37:14.205Z,8.82
2023-05-06T00:39:41.282Z,8.60
2023-05-06T00:42:08.385Z,8.48
2023-05-06T00:44:35.741Z,8.77
2023-05-06T00:47:03.145Z,10.18
2023-05-06T00:49:31.081Z,10.00
2023-05-06T00:52:01.535Z,9.00
2023-05-06T00:54:30.026Z,8.52
2023-05-06T00:57:00.263Z,7.80
2023-05-06T00:59:27.895Z,7.10
2023-05-06T01:01:55.113Z,7.40
2023-05-06T01:04:24.281Z,7.63
2023-05-06T01:07:52.799Z,7.88
2023-05-06T01:10:50.279Z,8.05
2023-05-06T01:13:45.037Z,8.27
2023-05-06T01:16:15.307Z,9.27
2023-05-06T01:18:43.777Z,9.90
2023-05-06T01:21:12.897Z,9.35
2023-05-06T01:23:58.649Z,9.35
2023-05-06T01:26:25.935Z,9.80
2023-05-06T01:28:53.913Z,10.73
2023-05-06T01:31:36.172Z,10.65
2023-05-06T01:34:17.848Z,10.82
2023-05-06T01:37:14.694Z,10.88
2023-05-06T01:39:42.371Z,11.77
2023-05-06T01:42:10.320Z,11.52
2023-05-06T01:44:37.865Z,11.50
2023-05-06T01:47:06.337Z,10.90
2023-05-06T01:49:33.602Z,11.18
2023-05-06T01:52:00.967Z,12.85
2023-05-06T01:54:28.205Z,12.05
2023-05-06T01:56:55.706Z,11.85
2023-05-06T01:59:22.777Z,11.82
2023-05-06T02:01:49.934Z,12.00
2023-05-06T02:04:17.045Z,11.02
2023-05-06T02:06:44.121Z,11.02
2023-05-06T02:09:11.431Z,11.75
2023-05-06T02:11:38.547Z,11.52
2023-05-06T02:14:05.697Z,11.23
2023-05-06T02:16:32.919Z,12.30
2023-05-06T02:19:00.192Z,12.00
2023-05-06T02:21:28.571Z,11.75
2023-05-06T02:23:55.874Z,12.75
2023-05-06T02:26:22.984Z,11.82
2023-05-06T02:28:50.191Z,12.23
2023-05-06T02:31:17.894Z,11.80
2023-05-06T02:33:46.336Z,11.68
2023-05-06T02:36:13.486Z,10.98
2023-05-06T02:38:40.571Z,11.05
2023-05-06T02:41:07.688Z,11.35
2023-05-06T02:43:34.860Z,11.88
2023-05-06T02:46:02.072Z,11.32
2023-05-06T02:48:29.293Z,11.50
2023-05-06T02:50:59.241Z,12.10
2023-05-06T02:53:26.675Z,11.88
2023-05-06T02:55:53.785Z,10.65
2023-05-06T02:58:20.862Z,10.18
2023-05-06T03:00:48.001Z,10.98
2023-05-06T03:03:15.105Z,11.15
2023-05-06T03:05:42.252Z,12.07
2023-05-06T03:08:09.388Z,11.18
2023-05-06T03:10:36.512Z,12.60
2023-05-06T03:13:03.777Z,11.20
2023-05-06T03:15:32.236Z,12.02
2023-05-06T03:17:59.361Z,13.27
2023-05-06T03:20:29.552Z,12.18
2023-05-06T03:22:57.094Z,11.52
2023-05-06T03:25:24.462Z,11.48
2023-05-06T03:27:51.581Z,12.07
2023-05-06T03:30:18.763Z,12.30
2023-05-06T03:32:45.839Z,11.48
2023-05-06T03:35:13.173Z,12.63
2023-05-06T03:37:40.286Z,11.05
2023-05-06T03:40:08.474Z,10.80
2023-05-06T03:42:35.564Z,11.10
2023-05-06T05:03:05.706Z,13.05
2023-05-06T05:05:39.153Z,12.88
2023-05-06T05:08:06.741Z,13.30
2023-05-06T05:10:34.041Z,13.93
2023-05-06T05:13:01.284Z,13.30
2023-05-06T05:15:28.511Z,13.15
2023-05-06T05:17:55.620Z,13.25
2023-05-06T05:20:22.939Z,13.90
2023-05-06T05:22:50.198Z,13.98
2023-05-06T05:25:17.336Z,12.07
2023-05-06T05:27:44.470Z,13.57
2023-05-06T05:30:12.057Z,13.90
2023-05-06T05:32:39.178Z,14.15
2023-05-06T05:35:07.193Z,12.77
2023-05-06T05:37:34.640Z,14.23
2023-05-06T05:40:02.010Z,14.27
2023-05-06T05:42:31.174Z,13.90
2023-05-06T05:44:58.371Z,13.90
2023-05-06T05:47:25.615Z,13.90
2023-05-06T05:49:52.733Z,14.57
2023-05-06T05:52:19.828Z,14.50
2023-05-06T05:54:46.931Z,14.77
2023-05-06T05:57:14.005Z,15.15
2023-05-06T05:59:41.108Z,13.73
2023-05-06T06:02:08.482Z,13.38
2023-05-06T06:04:35.628Z,13.25
2023-05-06T06:07:03.048Z,14.02
2023-05-06T06:09:30.168Z,14.15
2023-05-06T06:11:57.891Z,13.75
2023-05-06T06:14:25.006Z,13.10
2023-05-06T06:16:52.216Z,13.57
2023-05-06T06:19:19.391Z,13.57
2023-05-06T06:21:46.547Z,13.73
2023-05-06T06:24:13.797Z,14.35
2023-05-06T06:26:41.222Z,14.85
2023-05-06T06:29:08.556Z,14.77
2023-05-06T06:31:36.632Z,14.73
2023-05-06T06:34:06.762Z,14.27
2023-05-06T06:36:34.102Z,15.07
2023-05-06T06:39:01.251Z,15.27
2023-05-06T06:41:28.402Z,14.52
2023-05-06T06:43:56.024Z,14.93
2023-05-06T06:46:23.591Z,15.25
2023-05-06T06:48:50.894Z,14.73
2023-05-06T06:51:17.990Z,14.45
2023-05-06T06:53:45.116Z,14.88
2023-05-06T06:56:12.732Z,14.20
2023-05-06T06:58:40.035Z,14.52
2023-05-06T07:01:07.184Z,14.55
2023-05-06T07:03:34.539Z,14.85
2023-05-06T07:06:01.715Z,15.05
2023-05-06T07:08:28.804Z,14.57
2023-05-06T07:10:56.697Z,15.57
2023-05-06T07:13:23.901Z,15.45
2023-05-06T07:15:51.127Z,14.88
2023-05-06T07:18:18.245Z,15.02
2023-05-06T07:20:45.416Z,15.63
2023-05-06T07:23:12.556Z,15.82
2023-05-06T07:25:39.664Z,16.45
2023-05-06T07:28:06.788Z,17.08
2023-05-06T07:30:33.959Z,16.25
2023-05-06T07:33:01.153Z,17.25
2023-05-06T07:35:28.309Z,17.52
2023-05-06T07:37:55.551Z,17.35
2023-05-06T07:40:22.755Z,17.60
2023-05-06T07:42:49.947Z,19.40
2023-05-06T07:45:17.263Z,18.45
2023-05-06T07:47:44.515Z,19.65
2023-05-06T07:50:11.719Z,19.65
2023-05-06T07:52:38.866Z,19.58
2023-05-06T07:55:09.327Z,20.58
2023-05-06T07:57:36.905Z,20.93
2023-05-06T08:00:10.150Z,21.52
2023-05-06T08:02:38.940Z,20.35
2023-05-06T08:05:08.221Z,21.40
2023-05-06T08:07:35.401Z,21.67
2023-05-06T08:10:02.611Z,21.58
2023-05-06T08:12:29.773Z,22.17
2023-05-06T08:14:56.935Z,21.95
2023-05-06T08:17:24.026Z,20.90
2023-05-06T08:19:51.145Z,22.17
2023-05-06T08:22:18.562Z,22.58
2023-05-06T08:24:46.077Z,23.73
2023-05-06T08:27:13.214Z,23.02
2023-05-06T08:29:40.352Z,24.05
2023-05-06T08:32:07.882Z,23.35
2023-05-06T08:34:35.216Z,24.42
2023-05-06T08:37:02.701Z,24.42
2023-05-06T08:39:31.002Z,23.30
2023-05-06T08:41:58.547Z,22.50
2023-05-06T08:44:25.864Z,24.27
2023-05-06T08:46:53.004Z,23.45
2023-05-06T08:49:20.218Z,24.17
2023-05-06T08:51:52.019Z,23.85
2023-05-06T08:54:19.320Z,23.20
2023-05-06T08:56:53.526Z,24.88
2023-05-06T08:59:25.240Z,23.63
2023-05-06T09:01:53.622Z,23.13
2023-05-06T09:04:20.902Z,21.80
2023-05-06T09:06:48.124Z,22.40
2023-05-06T09:09:15.295Z,22.58
2023-05-06T09:11:42.405Z,22.45
2023-05-06T09:14:15.432Z,22.08
2023-05-06T09:16:50.874Z,21.27
2023-05-06T09:19:20.501Z,22.25
2023-05-06T09:21:50.093Z,22.50
2023-05-06T09:24:17.688Z,21.27
2023-05-06T09:26:46.426Z,21.20
2023-05-06T09:29:13.717Z,20.73
2023-05-06T09:31:46.214Z,21.83
2023-05-06T09:34:14.778Z,21.67
2023-05-06T09:36:41.975Z,22.60
2023-05-06T09:39:10.358Z,22.10
2023-05-06T09:41:37.983Z,22.25
2023-05-06T09:44:05.809Z,21.15
2023-05-06T09:46:33.269Z,21.20
2023-05-06T09:49:01.716Z,18.92
2023-05-06T09:51:28.861Z,20.25
2023-05-06T09:53:58.008Z,20.58
2023-05-06T09:56:25.846Z,19.48
2023-05-06T09:58:53.302Z,19.77
2023-05-06T10:01:32.690Z,18.08
2023-05-06T10:04:10.186Z,18.80
2023-05-06T10:06:40.683Z,18.90
2023-05-06T10:09:09.507Z,18.45
2023-05-06T10:11:36.997Z,18.60
2023-05-06T10:14:05.014Z,17.38
2023-05-06T10:16:35.942Z,16.95
2023-05-06T10:19:04.517Z,22.88
2023-05-06T10:21:34.411Z,15.77
2023-05-06T10:24:07.878Z,15.27
2023-05-06T10:26:37.931Z,11.15
2023-05-06T10:29:10.070Z,9.43
2023-05-06T10:31:48.605Z,11.07
2023-05-06T10:34:16.568Z,11.52
2023-05-06T10:36:43.968Z,9.82
2023-05-06T10:39:13.861Z,10.18
2023-05-06T10:41:41.088Z,9.48
2023-05-06T10:44:10.171Z,9.27
2023-05-06T10:47:02.784Z,9.13
2023-05-06T10:49:29.949Z,9.55
2023-05-06T10:52:14.312Z,11.10
2023-05-06T10:54:50.947Z,9.75
2023-05-06T10:57:18.508Z,9.82
2023-05-06T10:59:49.539Z,9.25
2023-05-06T11:02:20.566Z,8.55
2023-05-06T11:04:53.319Z,8.93
2023-05-06T11:07:24.532Z,9.30
2023-05-06T11:10:06.633Z,10.30
2023-05-06T11:12:53.008Z,9.82
2023-05-06T11:15:50.834Z,9.95
2023-05-06T11:18:29.748Z,9.80
2023-05-06T11:21:03.052Z,11.70
2023-05-06T11:23:42.750Z,11.65
2023-05-06T11:26:10.784Z,16.98
2023-05-06T11:28:39.022Z,19.42
2023-05-06T11:31:06.634Z,20.92
2023-05-06T11:33:36.513Z,17.65
2023-05-06T11:36:04.961Z,18.83
2023-05-06T11:38:48.380Z,18.95
2023-05-06T11:41:16.764Z,18.98
2023-05-06T11:43:51.963Z,18.30
2023-05-06T11:46:20.528Z,19.00
2023-05-06T11:48:47.784Z,18.00
2023-05-06T11:51:14.961Z,17.67
2023-05-06T11:53:42.094Z,19.77
2023-05-06T11:56:09.303Z,18.33
2023-05-06T11:58:39.293Z,18.30
2023-05-06T12:01:06.554Z,18.38
2023-05-06T12:03:34.122Z,17.55
2023-05-06T12:06:01.837Z,17.95
2023-05-06T12:08:36.630Z,18.17
2023-05-06T12:11:09.927Z,17.48
2023-05-06T12:13:37.952Z,18.70
2023-05-06T12:16:08.482Z,16.92
2023-05-06T12:18:36.583Z,16.80
2023-05-06T12:21:04.327Z,17.35
2023-05-06T12:23:31.526Z,17.02
2023-05-06T12:26:06.907Z,15.75
2023-05-06T12:28:37.334Z,16.15
2023-05-06T12:31:30.952Z,16.63
2023-05-06T12:33:59.811Z,16.23
2023-05-06T12:36:28.297Z,15.48
2023-05-06T12:39:01.005Z,15.02
2023-05-06T12:41:46.199Z,15.25
2023-05-06T12:44:38.961Z,14.23
2023-05-06T12:47:09.264Z,15.05
2023-05-06T12:49:54.599Z,14.50
2023-05-06T12:52:23.857Z,13.27
2023-05-06T12:54:53.020Z,13.27
2023-05-06T12:57:21.034Z,12.85
2023-05-06T12:59:48.729Z,12.52
2023-05-06T13:02:16.241Z,12.15
2023-05-06T13:04:44.433Z,12.10
2023-05-06T13:07:12.107Z,12.15
2023-05-06T13:09:39.222Z,11.40
2023-05-06T13:12:07.686Z,10.43
2023-05-06T13:14:36.411Z,9.88
2023-05-06T13:17:06.992Z,10.40
2023-05-06T13:19:34.467Z,8.98
2023-05-06T13:22:02.479Z,9.38
2023-05-06T13:24:29.981Z,9.13
2023-05-06T13:26:57.647Z,9.07
2023-05-06T13:29:24.974Z,8.35
2023-05-06T13:31:52.264Z,8.63
2023-05-06T13:34:19.487Z,8.70
2023-05-06T13:36:49.263Z,9.55
2023-05-06T13:39:16.585Z,9.07
2023-05-06T13:41:47.767Z,8.85
2023-05-06T13:44:14.947Z,7.32
2023-05-06T13:46:44.121Z,7.10
2023-05-06T13:49:16.862Z,6.65
2023-05-06T13:51:43.933Z,5.57
2023-05-06T13:54:11.033Z,6.35
2023-05-06T13:56:38.429Z,6.57
2023-05-06T13:59:05.695Z,6.25
2023-05-06T14:01:33.174Z,7.90
2023-05-06T14:04:00.361Z,9.07
2023-05-06T14:06:27.920Z,7.90
2023-05-06T14:08:55.889Z,9.10
2023-05-06T14:11:23.038Z,9.18
2023-05-06T14:13:50.152Z,9.40
2023-05-06T14:16:17.342Z,9.98
2023-05-06T14:18:44.442Z,10.13
2023-05-06T14:21:11.511Z,10.35
2023-05-06T14:23:38.702Z,14.65
2023-05-06T14:26:05.817Z,10.88
2023-05-06T14:28:32.946Z,11.77
2023-05-06T14:31:00.030Z,11.77
2023-05-06T14:33:27.144Z,9.30
2023-05-06T14:35:54.400Z,7.93
2023-05-06T14:38:21.463Z,6.93
2023-05-06T14:40:48.602Z,6.65
2023-05-06T14:43:15.769Z,6.40
2023-05-06T14:45:42.965Z,6.88
2023-05-06T14:48:10.495Z,6.65
2023-05-06T14:50:37.894Z,6.95
2023-05-06T14:53:04.992Z,7.75
2023-05-06T14:55:32.119Z,6.65
2023-05-06T14:57:59.378Z,7.15
2023-05-06T15:00:26.560Z,7.07
2023-05-06T15:02:53.781Z,8.40
2023-05-06T15:05:21.198Z,7.40
2023-05-06T15:07:48.366Z,7.35
2023-05-06T15:10:15.641Z,6.40
2023-05-06T15:12:42.794Z,5.95
2023-05-06T15:15:10.470Z,6.65
2023-05-06T15:17:39.554Z,6.18
2023-05-06T15:20:08.803Z,5.88
2023-05-06T15:22:39.195Z,6.18
2023-05-06T15:25:09.461Z,6.68
2023-05-06T15:27:39.548Z,6.68
2023-05-06T15:30:07.778Z,6.40
2023-05-06T15:32:34.868Z,7.50
2023-05-06T15:35:05.092Z,7.45
2023-05-06T15:37:35.310Z,7.47
2023-05-06T15:40:02.514Z,7.63
2023-05-06T15:42:30.387Z,6.10
2023-05-06T15:44:58.403Z,6.72
2023-05-06T15:47:25.655Z,7.40
2023-05-06T15:50:10.916Z,7.40
2023-05-06T15:52:39.847Z,7.15
2023-05-06T15:55:07.932Z,7.30
2023-05-06T15:57:35.409Z,6.25
2023-05-06T16:00:02.715Z,6.60
2023-05-06T16:02:29.930Z,6.30
2023-05-06T16:04:57.230Z,6.25
2023-05-06T16:07:24.466Z,6.10
2023-05-06T16:09:51.807Z,6.05
2023-05-06T16:12:18.959Z,6.60
2023-05-06T16:14:46.058Z,7.82
2023-05-06T16:17:13.220Z,7.90
2023-05-06T16:19:40.360Z,7.47
2023-05-06T16:22:07.887Z,8.02
2023-05-06T16:24:34.955Z,8.73
2023-05-06T16:27:02.735Z,7.65
2023-05-06T16:29:29.850Z,7.90
2023-05-06T16:31:56.987Z,8.68
2023-05-06T16:34:24.734Z,8.30
2023-05-06T16:36:52.539Z,8.35
2023-05-06T16:39:19.615Z,8.35
2023-05-06T16:41:47.306Z,8.10
2023-05-06T16:44:14.374Z,7.18
2023-05-06T16:46:41.478Z,7.00
2023-05-06T16:49:08.649Z,6.68
2023-05-06T16:51:35.779Z,6.73
2023-05-06T16:59:21.374Z,6.65
2023-05-06T17:04:16.728Z,5.90
2023-05-06T17:06:43.965Z,5.25
2023-05-06T17:09:11.206Z,5.50
2023-05-06T17:11:38.554Z,5.88
2023-05-06T17:14:05.615Z,5.53
2023-05-06T17:16:32.741Z,5.83
2023-05-06T17:18:59.860Z,5.82
2023-05-06T17:21:27.989Z,6.10
2023-05-06T17:23:55.135Z,6.13
2023-05-06T17:26:22.490Z,6.38
2023-05-06T17:28:51.141Z,6.43
2023-05-06T17:31:18.950Z,6.38
2023-05-06T17:33:46.461Z,7.60
2023-05-06T17:36:14.140Z,8.35
2023-05-06T17:38:41.249Z,8.00
2023-05-06T17:41:08.882Z,8.85
2023-05-06T17:43:36.303Z,9.00
2023-05-06T17:46:03.868Z,10.00
2023-05-06T17:48:31.176Z,9.70
2023-05-06T17:51:02.450Z,10.70
2023-05-06T17:53:29.901Z,10.90
2023-05-06T17:55:57.212Z,11.02
2023-05-06T18:15:36.335Z,14.95
2023-05-06T18:40:12.945Z,20.42
2023-05-06T18:42:40.033Z,22.30
2023-05-06T18:45:08.564Z,21.05
2023-05-06T18:47:37.824Z,20.60
2023-05-06T18:50:05.372Z,20.75
2023-05-06T18:52:32.742Z,21.27
